Time;durP1;ratioP1;P1;durP2;ratioP2;P2;SDS_P1;SDS_P2;PMS_P1;PMS_P2;Temp;Humidity;BMP_temperature;BMP_pressure;BME280_temperature;BME280_humidity;BME280_pressure;Samples;Min_cycle;Max_cycle;Signal;HPM_P1;HPM_P2
2023/10/31 00:00:11;;;;;;;;;;;;;;;;;;5152388;27;19927;-44
2023/10/31 00:02:36;;;;;;;;;;;;;;;;;;5151934;27;20019;-47
2023/10/31 00:05:02;;;;;;;;;;;;;;;;;;5152028;27;19987;-45
2023/10/31 00:07:27;;;;;;;;;;;;;;;;;;5151430;27;20267;-46
2023/10/31 00:09:53;;;;;;;;;;;;;;;;;;5150792;27;20018;-48
2023/10/31 00:12:18;;;;;;;;;;;;;;;;;;5150404;27;19930;-46
2023/10/31 00:14:43;;;;;;;;;;;;;;;;;;5150566;27;20413;-46
2023/10/31 00:17:09;;;;;;;;;;;;;;;;;;5140147;27;20351;-44
2023/10/31 00:19:34;;;;;;;;;;;;;;;;;;5151096;27;20342;-44
2023/10/31 00:22:00;;;;;;;;;;;;;;;;;;5151452;27;19923;-44
2023/10/31 00:24:26;;;;;;;;;;;;;;;;;;5150899;27;19934;-48
2023/10/31 00:26:51;;;;;;;;;;;;;;;;;;5151495;27;20364;-46
2023/10/31 00:29:17;;;;;;;;;;;;;;;;;;5150480;27;20014;-45
2023/10/31 00:31:42;;;;;;;;;;;;;;;;;;5150481;27;19934;-46
2023/10/31 00:34:08;;;;;;;;;;;;;;;;;;5150756;27;19955;-46
2023/10/31 00:36:34;;;;;;;;;;;;;;;;;;5151010;27;19927;-45
2023/10/31 00:38:59;;;;;;;;;;;;;;;;;;5151217;27;20002;-46
2023/10/31 00:41:24;;;;;;;;;;;;;;;;;;5150474;27;20023;-45
2023/10/31 00:43:50;;;;;;;;;;;;;;;;;;5150797;27;19967;-44
2023/10/31 00:46:15;;;;;;;;;;;;;;;;;;5151130;27;19976;-45
2023/10/31 00:48:41;;;;;;;;;;;;;;;;;;5150480;27;20275;-44
2023/10/31 00:51:06;;;;;;;;;;;;;;;;;;5151244;27;20053;-45
2023/10/31 00:53:32;;;;;;;;;;;;;;;;;;5150429;27;19927;-45
2023/10/31 00:55:57;;;;;;;;;;;;;;;;;;5150818;27;19973;-44
2023/10/31 00:58:23;;;;;;;;;;;;;;;;;;5143803;27;20033;-47
2023/10/31 01:00:48;;;;;;;;;;;;;;;;;;5130123;28;20022;-45
2023/10/31 01:03:13;;;;;;;;;;;;;;;;;;5129846;28;19955;-44
2023/10/31 01:05:39;;;;;;;;;;;;;;;;;;5134359;27;20017;-46
2023/10/31 01:08:05;;;;;;;;;;;;;;;;;;5146274;27;20056;-44
2023/10/31 01:10:30;;;;;;;;;;;;;;;;;;5128234;27;19975;-44
2023/10/31 01:12:56;;;;;;;;;;;;;;;;;;5128920;28;20014;-45
2023/10/31 01:15:21;;;;;;;;;;;;;;;;;;5133493;27;20041;-46
2023/10/31 01:17:47;;;;;;;;;;;;;;;;;;5139721;27;20034;-45
2023/10/31 01:20:12;;;;;;;;;;;;;;;;;;5151167;27;19927;-44
2023/10/31 01:22:38;;;;;;;;;;;;;;;;;;5150234;27;19934;-47
2023/10/31 01:25:03;;;;;;;;;;;;;;;;;;5150717;27;20014;-44
2023/10/31 01:27:28;;;;;;;;;;;;;;;;;;5150127;27;19970;-48
2023/10/31 01:29:54;;;;;;;;;;;;;;;;;;5129720;27;20022;-46
2023/10/31 01:32:19;;;;;;;;;;;;;;;;;;5134377;27;19933;-44
2023/10/31 01:34:47;;;;;;;;;;;;;;;;;;5149752;27;19923;-44
2023/10/31 01:37:14;;;;;;;;;;;;;;;;;;5149186;27;19972;-45
2023/10/31 01:39:39;;;;;;;;;;;;;;;;;;5150212;27;19966;-47
2023/10/31 01:42:05;;;;;;;;;;;;;;;;;;5150156;27;19923;-45
2023/10/31 01:44:30;;;;;;;;;;;;;;;;;;5149841;27;20134;-44
2023/10/31 01:46:56;;;;;;;;;;;;;;;;;;5149784;27;19930;-45
2023/10/31 01:49:21;;;;;;;;;;;;;;;;;;5134206;27;20018;-46
2023/10/31 01:51:47;;;;;;;;;;;;;;;;;;5129037;28;19946;-45
2023/10/31 01:54:12;;;;;;;;;;;;;;;;;;5128244;28;20022;-44
2023/10/31 01:56:38;;;;;;;;;;;;;;;;;;5139789;27;19970;-45
2023/10/31 01:59:03;;;;;;;;;;;;;;;;;;5149937;27;20049;-46
2023/10/31 02:01:28;;;;;;;;;;;;;;;;;;5149897;27;20009;-47
2023/10/31 02:03:54;;;;;;;;;;;;;;;;;;5149572;27;20369;-46
2023/10/31 02:06:19;;;;;;;;;;;;;;;;;;5149547;27;20013;-46
2023/10/31 02:08:45;;;;;;;;;;;;;;;;;;5139327;27;19923;-45
2023/10/31 02:11:10;;;;;;;;;;;;;;;;;;5128707;28;19923;-47
2023/10/31 02:13:36;;;;;;;;;;;;;;;;;;5128340;28;19963;-44
2023/10/31 02:16:02;;;;;;;;;;;;;;;;;;5135309;27;19923;-48
2023/10/31 02:18:27;;;;;;;;;;;;;;;;;;5142713;27;19973;-45
2023/10/31 02:20:53;;;;;;;;;;;;;;;;;;5149199;27;20048;-45
2023/10/31 02:23:18;;;;;;;;;;;;;;;;;;5149514;27;19923;-45
2023/10/31 02:25:44;;;;;;;;;;;;;;;;;;5148912;27;20033;-45
2023/10/31 02:28:09;;;;;;;;;;;;;;;;;;5148847;27;20367;-45
2023/10/31 02:30:35;;;;;;;;;;;;;;;;;;5149370;27;20021;-46
2023/10/31 02:33:00;;;;;;;;;;;;;;;;;;5148352;27;19931;-44
2023/10/31 02:35:26;;;;;;;;;;;;;;;;;;5148002;27;20005;-44
2023/10/31 02:37:51;;;;;;;;;;;;;;;;;;5146073;27;19965;-45
2023/10/31 02:40:17;;;;;;;;;;;;;;;;;;5128343;28;20010;-44
2023/10/31 02:42:42;;;;;;;;;;;;;;;;;;5141916;27;19993;-45
2023/10/31 02:45:08;;;;;;;;;;;;;;;;;;5148593;27;20049;-46
2023/10/31 02:47:33;;;;;;;;;;;;;;;;;;5148976;27;20363;-45
2023/10/31 02:49:59;;;;;;;;;;;;;;;;;;5147861;27;19927;-45
2023/10/31 02:52:24;;;;;;;;;;;;;;;;;;5148163;27;19974;-45
2023/10/31 02:54:50;;;;;;;;;;;;;;;;;;5148046;27;19923;-48
2023/10/31 02:57:15;;;;;;;;;;;;;;;;;;5148513;27;20259;-44
2023/10/31 02:59:40;;;;;;;;;;;;;;;;;;5148104;27;20002;-45
2023/10/31 03:02:06;;;;;;;;;;;;;;;;;;5148931;27;20427;-48
2023/10/31 03:04:31;;;;;;;;;;;;;;;;;;5148887;27;20393;-45
2023/10/31 03:06:57;;;;;;;;;;;;;;;;;;5148631;27;20426;-45
2023/10/31 03:09:22;;;;;;;;;;;;;;;;;;5147766;27;19970;-45
2023/10/31 03:11:48;;;;;;;;;;;;;;;;;;5148737;27;20022;-45
2023/10/31 03:14:13;;;;;;;;;;;;;;;;;;5148215;27;19923;-47
2023/10/31 03:16:39;;;;;;;;;;;;;;;;;;5141872;27;20018;-44
2023/10/31 03:19:04;;;;;;;;;;;;;;;;;;5148089;27;19938;-45
2023/10/31 03:21:30;;;;;;;;;;;;;;;;;;5148914;27;19923;-44
2023/10/31 03:23:55;;;;;;;;;;;;;;;;;;5148797;27;20410;-47
2023/10/31 03:26:21;;;;;;;;;;;;;;;;;;5148155;27;19923;-47
2023/10/31 03:28:46;;;;;;;;;;;;;;;;;;5138136;27;20390;-45
2023/10/31 03:31:12;;;;;;;;;;;;;;;;;;5127882;28;20276;-45
2023/10/31 03:33:37;;;;;;;;;;;;;;;;;;5128242;27;20010;-45
2023/10/31 03:36:03;;;;;;;;;;;;;;;;;;5137562;27;20029;-45
2023/10/31 03:38:28;;;;;;;;;;;;;;;;;;5151711;27;20429;-43
2023/10/31 03:40:53;;;;;;;;;;;;;;;;;;5151621;27;20295;-48
2023/10/31 03:43:19;;;;;;;;;;;;;;;;;;5133118;27;19963;-44
2023/10/31 03:45:44;;;;;;;;;;;;;;;;;;5141957;27;20319;-44
2023/10/31 03:48:10;;;;;;;;;;;;;;;;;;5146327;27;19935;-45
2023/10/31 03:50:35;;;;;;;;;;;;;;;;;;5131353;28;20045;-48
2023/10/31 03:53:01;;;;;;;;;;;;;;;;;;5134960;27;19962;-48
2023/10/31 03:55:26;;;;;;;;;;;;;;;;;;5152066;27;20001;-44
2023/10/31 03:57:51;;;;;;;;;;;;;;;;;;5151199;27;19923;-45
2023/10/31 04:00:17;;;;;;;;;;;;;;;;;;5152158;27;19927;-47
2023/10/31 04:02:43;;;;;;;;;;;;;;;;;;5151897;27;19966;-47
2023/10/31 04:05:08;;;;;;;;;;;;;;;;;;5151995;27;19923;-47
2023/10/31 04:07:33;;;;;;;;;;;;;;;;;;5151681;27;20003;-45
2023/10/31 04:09:59;;;;;;;;;;;;;;;;;;5151056;27;20385;-44
2023/10/31 04:12:24;;;;;;;;;;;;;;;;;;5151013;27;20035;-43
2023/10/31 04:14:50;;;;;;;;;;;;;;;;;;5151104;27;19958;-45
2023/10/31 04:17:15;;;;;;;;;;;;;;;;;;5150610;27;20018;-47
2023/10/31 04:19:41;;;;;;;;;;;;;;;;;;5151060;27;20050;-45
2023/10/31 04:22:06;;;;;;;;;;;;;;;;;;5151728;27;19927;-44
2023/10/31 04:24:32;;;;;;;;;;;;;;;;;;5151894;27;19966;-45
2023/10/31 04:26:57;;;;;;;;;;;;;;;;;;5151890;27;19930;-46
2023/10/31 04:29:22;;;;;;;;;;;;;;;;;;5149268;27;19988;-45
2023/10/31 04:31:48;;;;;;;;;;;;;;;;;;5151280;27;19923;-45
2023/10/31 04:34:13;;;;;;;;;;;;;;;;;;5150718;27;19969;-44
2023/10/31 04:36:39;;;;;;;;;;;;;;;;;;5150995;27;20332;-47
2023/10/31 04:39:05;;;;;;;;;;;;;;;;;;5150780;27;19934;-44
2023/10/31 04:41:30;;;;;;;;;;;;;;;;;;5146743;27;19975;-46
2023/10/31 04:43:56;;;;;;;;;;;;;;;;;;5150834;27;20313;-46
2023/10/31 04:46:21;;;;;;;;;;;;;;;;;;5145766;27;19923;-47
2023/10/31 04:48:47;;;;;;;;;;;;;;;;;;5150369;27;19984;-44
2023/10/31 04:51:12;;;;;;;;;;;;;;;;;;5150799;27;20022;-44
2023/10/31 04:53:38;;;;;;;;;;;;;;;;;;5150504;27;19977;-46
2023/10/31 04:56:03;;;;;;;;;;;;;;;;;;5151240;27;19930;-44
2023/10/31 04:58:29;;;;;;;;;;;;;;;;;;5149531;27;20338;-45
2023/10/31 05:00:54;;;;;;;;;;;;;;;;;;5151108;27;20321;-45
2023/10/31 05:03:19;;;;;;;;;;;;;;;;;;5150557;27;19977;-47
2023/10/31 05:05:45;;;;;;;;;;;;;;;;;;5150789;27;20002;-45
2023/10/31 05:08:10;;;;;;;;;;;;;;;;;;5150258;27;20282;-46
2023/10/31 05:10:36;;;;;;;;;;;;;;;;;;5149601;27;20017;-45
2023/10/31 05:13:03;;;;;;;;;;;;;;;;;;5149935;27;20386;-44
2023/10/31 05:15:28;;;;;;;;;;;;;;;;;;5142429;27;20352;-49
2023/10/31 05:17:56;;;;;;;;;;;;;;;;;;5155074;27;20554;-45
2023/10/31 05:20:23;;;;;;;;;;;;;;;;;;5150144;27;21365;-47
2023/10/31 05:22:48;;;;;;;;;;;;;;;;;;5150260;27;19936;-44
2023/10/31 05:25:14;;;;;;;;;;;;;;;;;;5150726;27;19987;-47
2023/10/31 05:27:39;;;;;;;;;;;;;;;;;;5149570;27;20010;-48
2023/10/31 05:30:05;;;;;;;;;;;;;;;;;;5137375;27;20466;-46
2023/10/31 05:32:30;;;;;;;;;;;;;;;;;;5149621;27;19963;-46
2023/10/31 05:34:56;;;;;;;;;;;;;;;;;;5149664;27;20397;-48
2023/10/31 05:37:24;;;;;;;;;;;;;;;;;;5149845;27;19927;-46
2023/10/31 05:39:49;;;;;;;;;;;;;;;;;;5136721;27;19930;-48
2023/10/31 05:42:14;;;;;;;;;;;;;;;;;;5149560;27;20032;-44
2023/10/31 05:44:40;;;;;;;;;;;;;;;;;;5149880;27;20348;-44
2023/10/31 05:47:05;;;;;;;;;;;;;;;;;;5150124;27;19930;-46
2023/10/31 05:49:31;;;;;;;;;;;;;;;;;;5143650;27;20010;-45
2023/10/31 05:51:56;;;;;;;;;;;;;;;;;;5146205;27;19929;-45
2023/10/31 05:54:22;;;;;;;;;;;;;;;;;;5149049;27;20026;-46
2023/10/31 05:56:47;;;;;;;;;;;;;;;;;;5148194;27;20435;-46
2023/10/31 05:59:13;;;;;;;;;;;;;;;;;;5147969;27;20332;-48
2023/10/31 06:01:38;;;;;;;;;;;;;;;;;;5149497;27;19934;-45
2023/10/31 06:04:04;;;;;;;;;;;;;;;;;;5144461;27;20372;-45
2023/10/31 06:06:29;;;;;;;;;;;;;;;;;;5143881;27;20451;-44
2023/10/31 06:08:55;;;;;;;;;;;;;;;;;;5144185;27;20025;-47
2023/10/31 06:11:20;;;;;;;;;;;;;;;;;;5141835;27;20022;-45
2023/10/31 06:13:47;;;;;;;;;;;;;;;;;;5146512;27;20370;-47
2023/10/31 06:16:13;;;;;;;;;;;;;;;;;;5135571;27;19938;-45
2023/10/31 06:18:40;;;;;;;;;;;;;;;;;;5146794;27;19931;-45
2023/10/31 06:21:05;;;;;;;;;;;;;;;;;;5147070;27;20392;-45
2023/10/31 06:23:30;;;;;;;;;;;;;;;;;;5138114;27;20006;-45
2023/10/31 06:25:58;;;;;;;;;;;;;;;;;;5139394;27;20282;-45
2023/10/31 06:28:23;;;;;;;;;;;;;;;;;;5142194;27;19927;-47
2023/10/31 06:30:49;;;;;;;;;;;;;;;;;;5144981;27;19927;-48
2023/10/31 06:33:14;;;;;;;;;;;;;;;;;;5147669;27;20098;-55
2023/10/31 06:35:40;;;;;;;;;;;;;;;;;;5136792;27;19974;-46
2023/10/31 06:38:05;;;;;;;;;;;;;;;;;;5142463;27;19934;-53
2023/10/31 06:40:31;;;;;;;;;;;;;;;;;;5143241;27;20022;-46
2023/10/31 06:42:56;;;;;;;;;;;;;;;;;;5144386;27;19923;-51
2023/10/31 06:45:22;;;;;;;;;;;;;;;;;;5145534;27;20005;-44
2023/10/31 06:47:47;;;;;;;;;;;;;;;;;;5145115;27;19933;-45
2023/10/31 06:50:13;;;;;;;;;;;;;;;;;;5133428;27;19927;-44
2023/10/31 06:52:38;;;;;;;;;;;;;;;;;;5140308;27;20528;-46
2023/10/31 06:55:04;;;;;;;;;;;;;;;;;;5137709;27;20003;-45
2023/10/31 06:57:29;;;;;;;;;;;;;;;;;;5135064;27;19933;-44
2023/10/31 06:59:55;;;;;;;;;;;;;;;;;;5133579;27;19927;-48
2023/10/31 07:02:21;;;;;;;;;;;;;;;;;;5132850;27;20466;-44
2023/10/31 07:04:46;;;;;;;;;;;;;;;;;;5133233;27;19955;-45
2023/10/31 07:07:12;;;;;;;;;;;;;;;;;;5135985;27;19929;-46
2023/10/31 07:09:37;;;;;;;;;;;;;;;;;;5131073;27;19930;-44
2023/10/31 07:12:03;;;;;;;;;;;;;;;;;;5144092;27;20077;-44
2023/10/31 07:14:28;;;;;;;;;;;;;;;;;;5140558;27;20014;-43
2023/10/31 07:16:54;;;;;;;;;;;;;;;;;;5145697;27;19923;-45
2023/10/31 07:19:19;;;;;;;;;;;;;;;;;;5146047;27;19927;-45
2023/10/31 07:21:44;;;;;;;;;;;;;;;;;;5142752;27;20017;-44
2023/10/31 07:24:10;;;;;;;;;;;;;;;;;;5147014;27;19931;-44
2023/10/31 07:26:35;;;;;;;;;;;;;;;;;;5146885;27;19935;-43
2023/10/31 07:29:01;;;;;;;;;;;;;;;;;;5145176;27;19934;-47
2023/10/31 07:31:26;;;;;;;;;;;;;;;;;;5140428;27;20258;-45
2023/10/31 07:33:52;;;;;;;;;;;;;;;;;;5144171;27;20044;-47
2023/10/31 07:36:17;;;;;;;;;;;;;;;;;;5143700;27;19966;-45
2023/10/31 07:38:43;;;;;;;;;;;;;;;;;;5145891;27;20022;-44
2023/10/31 07:41:08;;;;;;;;;;;;;;;;;;5146599;27;20402;-45
2023/10/31 07:43:33;;;;;;;;;;;;;;;;;;5143609;27;20339;-46
2023/10/31 07:46:02;;;;;;;;;;;;;;;;;;5142643;27;19923;-44
2023/10/31 07:48:28;;;;;;;;;;;;;;;;;;5143255;27;20022;-46
2023/10/31 07:50:53;;;;;;;;;;;;;;;;;;5137475;27;19974;-44
2023/10/31 07:53:19;;;;;;;;;;;;;;;;;;5128711;27;19931;-46
2023/10/31 07:55:44;;;;;;;;;;;;;;;;;;5130908;27;19923;-45
2023/10/31 07:58:10;;;;;;;;;;;;;;;;;;5135577;27;20065;-44
2023/10/31 08:00:35;;;;;;;;;;;;;;;;;;5126390;27;19927;-45
2023/10/31 08:03:01;;;;;;;;;;;;;;;;;;5129727;27;20283;-44
2023/10/31 08:05:27;;;;;;;;;;;;;;;;;;5122516;27;20256;-44
2023/10/31 08:07:52;;;;;;;;;;;;;;;;;;5037863;28;20067;-45
2023/10/31 08:10:18;;;;;;;;;;;;;;;;;;5027705;28;21026;-44
2023/10/31 08:12:43;;;;;;;;;;;;;;;;;;5032070;28;20035;-45
2023/10/31 08:15:09;;;;;;;;;;;;;;;;;;5037760;28;20913;-47
2023/10/31 08:17:35;;;;;;;;;;;;;;;;;;5045524;28;20176;-45
2023/10/31 08:20:03;;;;;;;;;;;;;;;;;;5046906;28;20034;-45
2023/10/31 08:22:28;;;;;;;;;;;;;;;;;;5047778;28;19933;-45
2023/10/31 08:24:54;;;;;;;;;;;;;;;;;;5044012;27;19948;-44
2023/10/31 08:27:19;;;;;;;;;;;;;;;;;;5132886;27;20007;-45
2023/10/31 08:29:45;;;;;;;;;;;;;;;;;;5133613;27;20439;-46
2023/10/31 08:32:10;;;;;;;;;;;;;;;;;;5133256;27;20037;-46
2023/10/31 08:34:36;;;;;;;;;;;;;;;;;;5122732;27;19931;-44
2023/10/31 08:37:02;;;;;;;;;;;;;;;;;;5134214;27;20030;-44
2023/10/31 08:39:27;;;;;;;;;;;;;;;;;;5135435;27;19946;-45
2023/10/31 08:41:53;;;;;;;;;;;;;;;;;;5141318;27;20367;-43
2023/10/31 08:44:18;;;;;;;;;;;;;;;;;;5143412;27;19930;-45
2023/10/31 08:46:44;;;;;;;;;;;;;;;;;;5145970;27;19927;-48
2023/10/31 08:49:09;;;;;;;;;;;;;;;;;;5142013;27;19931;-44
2023/10/31 08:51:35;;;;;;;;;;;;;;;;;;5137380;27;19949;-45
2023/10/31 08:54:00;;;;;;;;;;;;;;;;;;5143908;27;19967;-44
2023/10/31 08:56:27;;;;;;;;;;;;;;;;;;5139176;27;19989;-47
2023/10/31 08:58:52;;;;;;;;;;;;;;;;;;5139887;27;19927;-45
2023/10/31 09:01:18;;;;;;;;;;;;;;;;;;5133171;27;19927;-46
2023/10/31 09:03:43;;;;;;;;;;;;;;;;;;5130357;27;20368;-44
2023/10/31 09:06:09;;;;;;;;;;;;;;;;;;5126424;27;19927;-44
2023/10/31 09:08:34;;;;;;;;;;;;;;;;;;5123885;27;19982;-45
2023/10/31 09:11:00;;;;;;;;;;;;;;;;;;5116694;27;20073;-45
2023/10/31 09:13:25;;;;;;;;;;;;;;;;;;5124473;27;19931;-44
2023/10/31 09:15:51;;;;;;;;;;;;;;;;;;5066332;28;19934;-45
2023/10/31 09:18:16;;;;;;;;;;;;;;;;;;5068986;28;20217;-45
2023/10/31 09:20:42;;;;;;;;;;;;;;;;;;5077511;28;19998;-43
2023/10/31 09:23:07;;;;;;;;;;;;;;;;;;5078073;28;19931;-47
2023/10/31 09:25:33;;;;;;;;;;;;;;;;;;5061247;28;19981;-46
2023/10/31 09:27:59;;;;;;;;;;;;;;;;;;5060383;28;20013;-44
2023/10/31 09:30:24;;;;;;;;;;;;;;;;;;5062647;28;20041;-44
2023/10/31 09:32:50;;;;;;;;;;;;;;;;;;5051901;27;19964;-46
2023/10/31 09:35:15;;;;;;;;;;;;;;;;;;5112802;27;19983;-44
2023/10/31 09:37:41;;;;;;;;;;;;;;;;;;5101651;27;20060;-44
2023/10/31 09:40:06;;;;;;;;;;;;;;;;;;5095490;27;20447;-43
2023/10/31 09:42:32;;;;;;;;;;;;;;;;;;5105470;27;19935;-44
2023/10/31 09:44:57;;;;;;;;;;;;;;;;;;5105722;27;19938;-46
2023/10/31 09:47:23;;;;;;;;;;;;;;;;;;5110137;27;20455;-44
2023/10/31 09:49:48;;;;;;;;;;;;;;;;;;5109296;27;20635;-45
2023/10/31 09:52:14;;;;;;;;;;;;;;;;;;5114276;27;19932;-44
2023/10/31 09:54:39;;;;;;;;;;;;;;;;;;5115235;27;19988;-45
2023/10/31 09:57:05;;;;;;;;;;;;;;;;;;5120343;27;19931;-45
2023/10/31 09:59:31;;;;;;;;;;;;;;;;;;5115005;27;19974;-48
2023/10/31 10:01:56;;;;;;;;;;;;;;;;;;5113248;27;20054;-46
2023/10/31 10:04:22;;;;;;;;;;;;;;;;;;5115219;27;19939;-44
2023/10/31 10:06:47;;;;;;;;;;;;;;;;;;5118013;27;19931;-45
2023/10/31 10:09:13;;;;;;;;;;;;;;;;;;5120766;27;19931;-43
2023/10/31 10:11:39;;;;;;;;;;;;;;;;;;5121718;27;20558;-47
2023/10/31 10:14:08;;;;;;;;;;;;;;;;;;5118588;27;19982;-45
2023/10/31 10:16:33;;;;;;;;;;;;;;;;;;5091043;27;20349;-46
2023/10/31 10:18:59;;;;;;;;;;;;;;;;;;5114390;27;20583;-44
2023/10/31 10:21:24;;;;;;;;;;;;;;;;;;5116307;27;19927;-44
2023/10/31 10:23:50;;;;;;;;;;;;;;;;;;5118019;27;19964;-46
2023/10/31 10:26:15;;;;;;;;;;;;;;;;;;5122704;27;20368;-45
2023/10/31 10:28:41;;;;;;;;;;;;;;;;;;5117051;27;20061;-45
2023/10/31 10:31:06;;;;;;;;;;;;;;;;;;5114303;27;19931;-43
2023/10/31 10:33:31;;;;;;;;;;;;;;;;;;5111686;27;20015;-43
2023/10/31 10:35:57;;;;;;;;;;;;;;;;;;5107117;27;20448;-45
2023/10/31 10:38:22;;;;;;;;;;;;;;;;;;5107242;27;19960;-43
2023/10/31 10:40:48;;;;;;;;;;;;;;;;;;5108949;27;20140;-44
2023/10/31 10:43:14;;;;;;;;;;;;;;;;;;5126273;27;20397;-44
2023/10/31 10:45:39;;;;;;;;;;;;;;;;;;5121348;27;19995;-45
2023/10/31 10:48:06;;;;;;;;;;;;;;;;;;5121912;27;19935;-44
2023/10/31 10:50:31;;;;;;;;;;;;;;;;;;5116082;27;20683;-46
2023/10/31 10:52:57;;;;;;;;;;;;;;;;;;5121830;27;20391;-44
2023/10/31 10:55:22;;;;;;;;;;;;;;;;;;5121465;27;20476;-44
2023/10/31 10:57:48;;;;;;;;;;;;;;;;;;5125059;27;20053;-44
2023/10/31 11:00:14;;;;;;;;;;;;;;;;;;5127120;27;19927;-45
2023/10/31 11:02:43;;;;;;;;;;;;;;;;;;5127802;27;19954;-45
2023/10/31 11:05:08;;;;;;;;;;;;;;;;;;5126811;27;20019;-47
2023/10/31 11:07:34;;;;;;;;;;;;;;;;;;5119662;27;20047;-45
2023/10/31 11:10:02;;;;;;;;;;;;;;;;;;5120392;27;20033;-45
2023/10/31 11:12:28;;;;;;;;;;;;;;;;;;5122966;27;19938;-45
2023/10/31 11:14:53;;;;;;;;;;;;;;;;;;5119740;27;19931;-45
2023/10/31 11:17:19;;;;;;;;;;;;;;;;;;5123310;27;20949;-48
2023/10/31 11:19:44;;;;;;;;;;;;;;;;;;5115616;27;19952;-44
2023/10/31 11:22:09;;;;;;;;;;;;;;;;;;5119579;27;19924;-44
2023/10/31 11:24:35;;;;;;;;;;;;;;;;;;5115823;27;20028;-46
2023/10/31 11:27:00;;;;;;;;;;;;;;;;;;5114117;27;20914;-45
2023/10/31 11:29:26;;;;;;;;;;;;;;;;;;5118692;27;19931;-44
2023/10/31 11:31:51;;;;;;;;;;;;;;;;;;5111644;27;20899;-47
2023/10/31 11:34:18;;;;;;;;;;;;;;;;;;5118153;27;21138;-46
2023/10/31 11:36:44;;;;;;;;;;;;;;;;;;5117203;27;19962;-45
2023/10/31 11:39:09;;;;;;;;;;;;;;;;;;5108668;27;21374;-44
2023/10/31 11:41:35;;;;;;;;;;;;;;;;;;5104925;27;19931;-45
2023/10/31 11:44:00;;;;;;;;;;;;;;;;;;5100267;27;20288;-44
2023/10/31 11:46:26;;;;;;;;;;;;;;;;;;5104847;27;19932;-44
2023/10/31 11:48:52;;;;;;;;;;;;;;;;;;5109041;27;19934;-46
2023/10/31 11:51:18;;;;;;;;;;;;;;;;;;5117786;27;20104;-44
2023/10/31 11:53:44;;;;;;;;;;;;;;;;;;5120188;27;21194;-46
2023/10/31 11:56:10;;;;;;;;;;;;;;;;;;5119132;27;20029;-47
2023/10/31 11:58:35;;;;;;;;;;;;;;;;;;5124127;27;20273;-45
2023/10/31 12:01:01;;;;;;;;;;;;;;;;;;5122119;27;21183;-46
2023/10/31 12:03:26;;;;;;;;;;;;;;;;;;5124812;27;19931;-46
2023/10/31 12:05:52;;;;;;;;;;;;;;;;;;5123031;27;21392;-46
2023/10/31 12:08:18;;;;;;;;;;;;;;;;;;5109868;27;19931;-45
2023/10/31 12:10:43;;;;;;;;;;;;;;;;;;5119788;27;19926;-46
2023/10/31 12:13:08;;;;;;;;;;;;;;;;;;5119496;27;20302;-45
2023/10/31 12:15:34;;;;;;;;;;;;;;;;;;5119850;27;20010;-44
2023/10/31 12:17:59;;;;;;;;;;;;;;;;;;5123079;27;19971;-46
2023/10/31 12:20:25;;;;;;;;;;;;;;;;;;5124705;27;19931;-46
2023/10/31 12:22:50;;;;;;;;;;;;;;;;;;5121954;27;20563;-46
2023/10/31 12:25:16;;;;;;;;;;;;;;;;;;5114388;27;20022;-45
2023/10/31 12:27:42;;;;;;;;;;;;;;;;;;5113026;27;19932;-45
2023/10/31 12:30:07;;;;;;;;;;;;;;;;;;5111078;27;19934;-46
2023/10/31 12:32:33;;;;;;;;;;;;;;;;;;5113174;27;19935;-45
2023/10/31 12:34:58;;;;;;;;;;;;;;;;;;5112912;27;20408;-44
2023/10/31 12:37:24;;;;;;;;;;;;;;;;;;5115072;27;19927;-45
2023/10/31 12:39:50;;;;;;;;;;;;;;;;;;5114716;27;19927;-45
2023/10/31 12:42:15;;;;;;;;;;;;;;;;;;5110498;27;19927;-45
2023/10/31 12:44:41;;;;;;;;;;;;;;;;;;5110468;27;19931;-46
2023/10/31 12:47:06;;;;;;;;;;;;;;;;;;5114511;27;19931;-47
2023/10/31 12:49:32;;;;;;;;;;;;;;;;;;5113213;27;19960;-44
2023/10/31 12:51:57;;;;;;;;;;;;;;;;;;5120699;27;19938;-44
2023/10/31 12:54:23;;;;;;;;;;;;;;;;;;5128190;27;20474;-47
2023/10/31 12:56:48;;;;;;;;;;;;;;;;;;5130698;27;19927;-44
2023/10/31 12:59:14;;;;;;;;;;;;;;;;;;5126078;27;19927;-45
2023/10/31 13:01:39;;;;;;;;;;;;;;;;;;5130229;27;20581;-48
2023/10/31 13:04:05;;;;;;;;;;;;;;;;;;5127214;27;19931;-44
2023/10/31 13:06:31;;;;;;;;;;;;;;;;;;5131810;27;20300;-46
2023/10/31 13:08:57;;;;;;;;;;;;;;;;;;5132038;27;19939;-44
2023/10/31 13:11:25;;;;;;;;;;;;;;;;;;5129908;27;19927;-44
2023/10/31 13:13:51;;;;;;;;;;;;;;;;;;5131750;27;20355;-46
2023/10/31 13:16:17;;;;;;;;;;;;;;;;;;5127721;27;19923;-49
2023/10/31 13:18:43;;;;;;;;;;;;;;;;;;5126419;27;19934;-46
2023/10/31 13:21:10;;;;;;;;;;;;;;;;;;5130849;27;19927;-46
2023/10/31 13:23:38;;;;;;;;;;;;;;;;;;5131118;27;20379;-44
2023/10/31 13:26:03;;;;;;;;;;;;;;;;;;5132723;27;20026;-45
2023/10/31 13:28:30;;;;;;;;;;;;;;;;;;5129258;27;20320;-47
2023/10/31 13:30:56;;;;;;;;;;;;;;;;;;5130684;27;20518;-46
2023/10/31 13:33:21;;;;;;;;;;;;;;;;;;5128322;27;20023;-47
2023/10/31 13:35:47;;;;;;;;;;;;;;;;;;5129619;27;20273;-47
2023/10/31 13:38:12;;;;;;;;;;;;;;;;;;5129275;27;20837;-48
2023/10/31 13:40:38;;;;;;;;;;;;;;;;;;5131510;27;20992;-45
2023/10/31 13:43:05;;;;;;;;;;;;;;;;;;5127297;27;19938;-46
2023/10/31 13:45:30;;;;;;;;;;;;;;;;;;5128441;27;20269;-47
2023/10/31 13:47:56;;;;;;;;;;;;;;;;;;5131967;27;19930;-44
2023/10/31 13:50:22;;;;;;;;;;;;;;;;;;5148549;27;19938;-45
2023/10/31 13:52:48;;;;;;;;;;;;;;;;;;5152719;27;19968;-48
2023/10/31 13:55:13;;;;;;;;;;;;;;;;;;5158170;27;20318;-46
2023/10/31 13:57:39;;;;;;;;;;;;;;;;;;5155936;27;20013;-45
2023/10/31 14:00:04;;;;;;;;;;;;;;;;;;5155992;27;20330;-44
2023/10/31 14:02:31;;;;;;;;;;;;;;;;;;5151288;27;19946;-44
2023/10/31 14:04:56;;;;;;;;;;;;;;;;;;5155872;27;19986;-47
2023/10/31 14:07:23;;;;;;;;;;;;;;;;;;5152423;27;20439;-45
2023/10/31 14:09:48;;;;;;;;;;;;;;;;;;5157132;27;19937;-44
2023/10/31 14:12:14;;;;;;;;;;;;;;;;;;5153371;27;19922;-47
2023/10/31 14:14:39;;;;;;;;;;;;;;;;;;5151137;27;20010;-45
2023/10/31 14:17:05;;;;;;;;;;;;;;;;;;5152226;27;20310;-46
2023/10/31 14:19:30;;;;;;;;;;;;;;;;;;5148751;27;19923;-46
2023/10/31 14:21:57;;;;;;;;;;;;;;;;;;5151969;27;20003;-45
2023/10/31 14:24:22;;;;;;;;;;;;;;;;;;5157364;27;19964;-45
2023/10/31 14:26:47;;;;;;;;;;;;;;;;;;5157174;27;20019;-47
2023/10/31 14:29:13;;;;;;;;;;;;;;;;;;5151873;27;19927;-44
2023/10/31 14:31:40;;;;;;;;;;;;;;;;;;5160723;27;20015;-44
2023/10/31 14:34:05;;;;;;;;;;;;;;;;;;5155589;27;19923;-48
2023/10/31 14:36:30;;;;;;;;;;;;;;;;;;5159996;27;19961;-44
2023/10/31 14:38:56;;;;;;;;;;;;;;;;;;5155688;27;20017;-44
2023/10/31 14:41:21;;;;;;;;;;;;;;;;;;5158104;27;20014;-44
2023/10/31 14:43:47;;;;;;;;;;;;;;;;;;5155388;27;20430;-45
2023/10/31 14:46:12;;;;;;;;;;;;;;;;;;5161600;27;19923;-45
2023/10/31 14:48:38;;;;;;;;;;;;;;;;;;5154072;27;20239;-47
2023/10/31 14:51:03;;;;;;;;;;;;;;;;;;5160231;27;19934;-45
2023/10/31 14:53:29;;;;;;;;;;;;;;;;;;5153631;27;20021;-44
2023/10/31 14:55:55;;;;;;;;;;;;;;;;;;5161951;27;19923;-48
2023/10/31 14:58:20;;;;;;;;;;;;;;;;;;5157737;27;19958;-44
2023/10/31 15:00:46;;;;;;;;;;;;;;;;;;5153322;27;20022;-44
2023/10/31 15:03:11;;;;;;;;;;;;;;;;;;5154594;27;19927;-46
2023/10/31 15:05:37;;;;;;;;;;;;;;;;;;5146393;27;20271;-45
2023/10/31 15:08:02;;;;;;;;;;;;;;;;;;5143850;27;20413;-44
2023/10/31 15:10:28;;;;;;;;;;;;;;;;;;5144135;27;20430;-47
2023/10/31 15:12:54;;;;;;;;;;;;;;;;;;5148453;27;19927;-50
2023/10/31 15:15:19;;;;;;;;;;;;;;;;;;5148492;27;20275;-49
2023/10/31 15:17:45;;;;;;;;;;;;;;;;;;5154654;27;20017;-49
2023/10/31 15:20:12;;;;;;;;;;;;;;;;;;5141542;27;19923;-47
2023/10/31 15:22:37;;;;;;;;;;;;;;;;;;5148698;27;19964;-49
2023/10/31 15:25:03;;;;;;;;;;;;;;;;;;5128326;27;19927;-49
2023/10/31 15:27:28;;;;;;;;;;;;;;;;;;5128324;28;20047;-49
2023/10/31 15:29:54;;;;;;;;;;;;;;;;;;5140420;27;20010;-49
2023/10/31 15:32:19;;;;;;;;;;;;;;;;;;5152524;27;19968;-49
2023/10/31 15:34:45;;;;;;;;;;;;;;;;;;5151452;27;20403;-46
2023/10/31 15:37:11;;;;;;;;;;;;;;;;;;5151938;27;20401;-48
2023/10/31 15:39:37;;;;;;;;;;;;;;;;;;5142983;27;19966;-49
2023/10/31 15:42:02;;;;;;;;;;;;;;;;;;5143830;27;20415;-47
2023/10/31 15:44:27;;;;;;;;;;;;;;;;;;5130980;28;20363;-49
2023/10/31 15:46:53;;;;;;;;;;;;;;;;;;5143639;27;20006;-47
2023/10/31 15:49:18;;;;;;;;;;;;;;;;;;5155627;27;20022;-47
2023/10/31 15:51:44;;;;;;;;;;;;;;;;;;5173169;27;20359;-48
2023/10/31 15:54:09;;;;;;;;;;;;;;;;;;5158403;27;20009;-49
2023/10/31 15:56:35;;;;;;;;;;;;;;;;;;5151656;27;20007;-49
2023/10/31 15:59:01;;;;;;;;;;;;;;;;;;5151285;27;20221;-46
2023/10/31 16:01:27;;;;;;;;;;;;;;;;;;5152148;27;19934;-47
2023/10/31 16:03:53;;;;;;;;;;;;;;;;;;5151909;27;19923;-48
2023/10/31 16:06:18;;;;;;;;;;;;;;;;;;5151117;27;20017;-49
2023/10/31 16:08:44;;;;;;;;;;;;;;;;;;5151238;27;20018;-50
2023/10/31 16:11:09;;;;;;;;;;;;;;;;;;5151777;27;20344;-49
2023/10/31 16:13:35;;;;;;;;;;;;;;;;;;5151409;27;20056;-48
2023/10/31 16:16:00;;;;;;;;;;;;;;;;;;5151945;27;19922;-50
2023/10/31 16:18:26;;;;;;;;;;;;;;;;;;5151107;27;20007;-47
2023/10/31 16:20:52;;;;;;;;;;;;;;;;;;5151786;27;20381;-47
2023/10/31 16:23:19;;;;;;;;;;;;;;;;;;5150776;27;20406;-48
2023/10/31 16:25:45;;;;;;;;;;;;;;;;;;5146087;27;20371;-48
2023/10/31 16:28:11;;;;;;;;;;;;;;;;;;5135786;27;19971;-47
2023/10/31 16:30:36;;;;;;;;;;;;;;;;;;5151463;27;19922;-49
2023/10/31 16:33:02;;;;;;;;;;;;;;;;;;5151860;27;20009;-48